createdAt,value
2019-03-22T00:00:40.639Z,14.40
2019-03-22T00:01:41.150Z,13.00
2019-03-22T00:02:40.669Z,14.30
2019-03-22T00:03:40.592Z,14.90
2019-03-22T00:04:40.583Z,15.60
2019-03-22T00:05:40.619Z,16.00
2019-03-22T00:06:40.575Z,15.90
2019-03-22T00:07:40.550Z,17.70
2019-03-22T00:08:40.538Z,17.50
2019-03-22T00:09:40.527Z,15.90
2019-03-22T00:10:40.526Z,17.60
2019-03-22T00:11:40.522Z,18.50
2019-03-22T00:12:40.505Z,16.50
2019-03-22T00:13:40.477Z,15.70
2019-03-22T00:14:40.471Z,17.30
2019-03-22T00:15:40.456Z,16.30
2019-03-22T00:16:40.470Z,16.50
2019-03-22T00:17:40.489Z,17.60
2019-03-22T00:18:40.438Z,16.80
2019-03-22T00:19:40.406Z,16.20
2019-03-22T00:20:40.403Z,16.00
2019-03-22T00:21:40.389Z,15.30
2019-03-22T00:22:40.417Z,17.00
2019-03-22T00:23:40.369Z,16.00
2019-03-22T00:24:40.379Z,14.30
2019-03-22T00:25:40.339Z,14.40
2019-03-22T00:26:40.327Z,15.30
2019-03-22T00:27:40.321Z,15.60
2019-03-22T00:28:40.330Z,16.00
2019-03-22T00:29:40.293Z,16.10
2019-03-22T00:30:40.309Z,14.90
2019-03-22T00:31:40.268Z,16.20
2019-03-22T00:32:40.263Z,15.40
2019-03-22T00:33:40.253Z,17.00
2019-03-22T00:34:40.260Z,15.50
2019-03-22T00:35:40.225Z,17.00
2019-03-22T00:36:40.222Z,16.50
2019-03-22T00:37:40.203Z,16.90
2019-03-22T00:38:40.193Z,17.10
2019-03-22T00:39:40.179Z,15.10
2019-03-22T00:40:40.207Z,16.50
2019-03-22T00:41:40.167Z,18.80
2019-03-22T00:42:40.147Z,15.60
2019-03-22T00:43:40.136Z,17.40
2019-03-22T00:44:40.126Z,17.80
2019-03-22T00:45:40.113Z,16.50
2019-03-22T00:46:40.136Z,15.40
2019-03-22T00:47:40.096Z,15.70
2019-03-22T00:48:40.087Z,16.10
2019-03-22T00:49:40.070Z,16.90
2019-03-22T00:50:40.065Z,15.70
2019-03-22T00:51:40.040Z,14.60
2019-03-22T00:52:40.051Z,16.10
2019-03-22T00:53:40.020Z,16.30
2019-03-22T00:54:40.026Z,16.60
2019-03-22T00:55:40.007Z,15.10
2019-03-22T00:56:39.983Z,15.40
2019-03-22T00:57:39.975Z,15.40
2019-03-22T00:58:40.010Z,16.20
2019-03-22T00:59:39.955Z,17.00
2019-03-22T01:00:39.940Z,16.00
2019-03-22T01:01:39.929Z,15.40
2019-03-22T01:02:39.921Z,17.40
2019-03-22T01:03:39.907Z,14.80
2019-03-22T01:04:39.916Z,15.60
2019-03-22T01:05:39.893Z,14.90
2019-03-22T01:06:39.889Z,15.30
2019-03-22T01:07:39.972Z,16.20
2019-03-22T01:08:39.856Z,14.50
2019-03-22T01:09:39.840Z,15.60
2019-03-22T01:10:39.860Z,16.00
2019-03-22T01:11:39.818Z,15.80
2019-03-22T01:12:39.822Z,17.80
2019-03-22T01:13:39.791Z,15.50
2019-03-22T01:14:39.785Z,14.50
2019-03-22T01:15:39.769Z,17.50
2019-03-22T01:16:39.769Z,15.00
2019-03-22T01:17:39.746Z,14.80
2019-03-22T01:18:39.741Z,15.10
2019-03-22T01:19:39.731Z,15.50
2019-03-22T01:20:39.718Z,15.20
2019-03-22T01:21:39.721Z,13.50
2019-03-22T01:22:39.692Z,14.70
2019-03-22T01:23:39.685Z,15.50
2019-03-22T01:24:39.683Z,15.10
2019-03-22T01:25:39.652Z,15.00
2019-03-22T01:26:39.653Z,16.70
2019-03-22T01:27:41.028Z,15.10
2019-03-22T01:28:39.626Z,14.30
2019-03-22T01:29:39.604Z,15.50
2019-03-22T01:30:39.614Z,18.70
2019-03-22T01:31:39.607Z,17.80
2019-03-22T01:32:39.575Z,17.20
2019-03-22T01:33:40.644Z,15.10
2019-03-22T01:34:39.551Z,15.10
2019-03-22T01:35:39.542Z,15.30
2019-03-22T01:36:39.541Z,15.70
2019-03-22T01:37:39.521Z,15.80
2019-03-22T01:38:39.510Z,16.10
2019-03-22T01:39:39.518Z,15.20
2019-03-22T01:40:39.487Z,15.00
2019-03-22T01:41:39.492Z,15.20
2019-03-22T01:42:39.483Z,16.30
2019-03-22T01:43:39.450Z,13.90
2019-03-22T01:44:39.445Z,13.40
2019-03-22T01:45:39.442Z,14.20
2019-03-22T01:46:39.416Z,12.70
2019-03-22T01:47:39.404Z,14.50
2019-03-22T01:48:39.410Z,14.40
2019-03-22T01:49:39.386Z,13.20
2019-03-22T01:50:39.374Z,14.90
2019-03-22T01:51:39.401Z,13.10
2019-03-22T01:52:39.356Z,17.40
2019-03-22T01:53:39.348Z,15.20
2019-03-22T01:54:39.337Z,15.80
2019-03-22T01:55:39.315Z,14.30
2019-03-22T01:56:39.304Z,14.20
2019-03-22T01:57:39.315Z,14.50
2019-03-22T01:58:39.282Z,14.40
2019-03-22T01:59:39.268Z,16.00
2019-03-22T02:00:39.271Z,16.80
2019-03-22T02:01:39.240Z,13.00
2019-03-22T02:02:39.237Z,15.40
2019-03-22T02:03:39.254Z,14.00
2019-03-22T02:04:39.215Z,13.40
2019-03-22T02:05:39.202Z,14.20
2019-03-22T02:06:39.194Z,14.50
2019-03-22T02:07:39.180Z,15.30
2019-03-22T02:08:39.164Z,14.80
2019-03-22T02:10:00.232Z,13.60
2019-03-22T02:10:39.147Z,14.20
2019-03-22T02:11:39.136Z,14.80
2019-03-22T02:12:39.117Z,12.20
2019-03-22T02:13:39.105Z,12.90
2019-03-22T02:14:39.099Z,14.70
2019-03-22T02:15:39.107Z,14.20
2019-03-22T02:16:39.074Z,15.40
2019-03-22T02:17:39.069Z,14.80
2019-03-22T02:18:39.056Z,15.00
2019-03-22T02:19:39.039Z,13.70
2019-03-22T02:20:39.029Z,13.40
2019-03-22T02:21:39.036Z,16.40
2019-03-22T02:22:39.009Z,15.30
2019-03-22T02:23:39.007Z,14.20
2019-03-22T02:24:38.980Z,12.70
2019-03-22T02:25:38.985Z,13.40
2019-03-22T02:26:38.965Z,14.30
2019-03-22T02:27:38.985Z,13.50
2019-03-22T02:28:38.931Z,16.60
2019-03-22T02:29:38.930Z,14.50
2019-03-22T02:30:38.920Z,13.90
2019-03-22T02:31:38.934Z,14.20
2019-03-22T02:32:38.898Z,13.60
2019-03-22T02:33:38.896Z,13.60
2019-03-22T02:34:38.873Z,12.40
2019-03-22T02:35:38.993Z,14.00
2019-03-22T02:36:38.879Z,14.60
2019-03-22T02:37:38.832Z,13.80
2019-03-22T02:38:38.845Z,13.00
2019-03-22T02:39:38.927Z,13.00
2019-03-22T02:40:38.799Z,11.60
2019-03-22T02:41:38.805Z,12.90
2019-03-22T02:42:38.784Z,14.60
2019-03-22T02:43:38.765Z,14.50
2019-03-22T02:44:38.789Z,12.40
2019-03-22T02:45:38.750Z,13.80
2019-03-22T02:46:38.737Z,12.60
2019-03-22T02:47:38.731Z,15.00
2019-03-22T02:48:38.710Z,15.50
2019-03-22T02:49:38.692Z,13.90
2019-03-22T02:50:38.719Z,12.40
2019-03-22T02:51:38.683Z,12.00
2019-03-22T02:52:38.663Z,13.20
2019-03-22T02:53:38.665Z,14.30
2019-03-22T02:54:38.671Z,14.40
2019-03-22T02:55:38.633Z,16.60
2019-03-22T02:56:38.633Z,14.20
2019-03-22T02:57:38.612Z,12.30
2019-03-22T02:58:38.599Z,14.10
2019-03-22T02:59:38.592Z,12.70
2019-03-22T03:00:38.568Z,11.70
2019-03-22T03:01:38.560Z,16.10
2019-03-22T03:02:38.595Z,12.80
2019-03-22T03:03:38.544Z,13.40
2019-03-22T03:04:38.530Z,11.40
2019-03-22T03:05:38.535Z,13.40
2019-03-22T03:06:38.507Z,13.10
2019-03-22T03:07:38.496Z,12.80
2019-03-22T03:08:38.499Z,13.60
2019-03-22T03:09:38.470Z,11.30
2019-03-22T03:10:38.472Z,12.70
2019-03-22T03:11:38.460Z,12.10
2019-03-22T03:12:38.441Z,13.90
2019-03-22T03:13:38.424Z,14.00
2019-03-22T03:14:38.435Z,14.80
2019-03-22T03:15:38.402Z,15.20
2019-03-22T03:16:38.395Z,13.80
2019-03-22T03:17:38.389Z,12.30
2019-03-22T03:18:38.375Z,13.40
2019-03-22T03:19:38.359Z,15.30
2019-03-22T03:20:38.390Z,13.20
2019-03-22T03:21:38.334Z,13.30
2019-03-22T03:22:38.328Z,11.60
2019-03-22T03:23:38.334Z,12.50
2019-03-22T03:24:38.349Z,13.10
2019-03-22T03:25:38.291Z,12.50
2019-03-22T03:26:38.314Z,13.70
2019-03-22T03:27:38.270Z,14.50
2019-03-22T03:28:38.267Z,12.00
2019-03-22T03:29:38.253Z,14.10
2019-03-22T03:30:38.252Z,13.00
2019-03-22T03:31:38.369Z,14.00
2019-03-22T03:32:38.237Z,14.00
2019-03-22T03:33:38.212Z,13.10
2019-03-22T03:34:38.197Z,13.50
2019-03-22T03:35:38.183Z,13.80
2019-03-22T03:36:38.179Z,12.70
2019-03-22T03:37:38.158Z,11.60
2019-03-22T03:38:38.204Z,13.30
2019-03-22T03:39:38.136Z,12.80
2019-03-22T03:40:38.127Z,11.90
2019-03-22T03:41:38.127Z,11.30
2019-03-22T03:42:38.104Z,11.40
2019-03-22T03:43:38.098Z,13.50
2019-03-22T03:44:38.095Z,13.00
2019-03-22T03:45:38.075Z,13.50
2019-03-22T03:46:38.055Z,11.80
2019-03-22T03:47:38.062Z,12.50
2019-03-22T03:48:38.040Z,11.60
2019-03-22T03:49:38.054Z,12.00
2019-03-22T03:50:38.015Z,13.10
2019-03-22T03:51:38.009Z,15.50
2019-03-22T03:52:39.591Z,11.70
2019-03-22T03:53:38.009Z,13.00
2019-03-22T03:54:37.972Z,10.80
2019-03-22T03:55:38.006Z,13.00
2019-03-22T03:56:37.957Z,13.00
2019-03-22T03:57:37.944Z,12.10
2019-03-22T03:58:51.632Z,10.60
2019-03-22T03:59:38.930Z,12.30
2019-03-22T04:00:37.901Z,12.30
2019-03-22T04:01:37.924Z,10.60
2019-03-22T04:02:37.878Z,11.70
2019-03-22T04:03:37.871Z,13.10
2019-03-22T04:04:37.858Z,10.50
2019-03-22T04:05:37.881Z,12.30
2019-03-22T04:06:38.681Z,14.30
2019-03-22T04:07:37.844Z,11.80
2019-03-22T04:08:37.809Z,12.20
2019-03-22T04:09:37.804Z,12.20
2019-03-22T04:10:37.806Z,12.90
2019-03-22T04:11:37.789Z,14.40
2019-03-22T04:12:37.767Z,12.70
2019-03-22T04:13:37.794Z,12.30
2019-03-22T04:14:37.749Z,11.40
2019-03-22T04:15:37.743Z,16.90
2019-03-22T04:16:37.727Z,13.60
2019-03-22T04:17:37.730Z,13.10
2019-03-22T04:18:38.641Z,14.20
2019-03-22T04:19:37.727Z,12.50
2019-03-22T04:20:37.688Z,13.80
2019-03-22T04:21:37.665Z,11.90
2019-03-22T04:22:37.676Z,12.70
2019-03-22T04:23:37.647Z,11.10
2019-03-22T04:24:37.637Z,12.00
2019-03-22T04:25:37.643Z,12.50
2019-03-22T04:26:37.613Z,11.90
2019-03-22T04:27:37.612Z,15.00
2019-03-22T04:28:37.599Z,11.50
2019-03-22T04:29:37.583Z,11.00
2019-03-22T04:30:37.571Z,13.20
2019-03-22T04:31:37.602Z,12.30
2019-03-22T04:32:37.549Z,12.50
2019-03-22T04:33:37.537Z,12.20
2019-03-22T04:34:37.536Z,12.90
2019-03-22T04:35:37.520Z,12.00
2019-03-22T04:36:37.505Z,14.60
2019-03-22T04:37:37.512Z,14.60
2019-03-22T04:38:37.481Z,15.40
2019-03-22T04:39:37.467Z,15.30
2019-03-22T04:40:37.469Z,15.30
2019-03-22T04:41:37.448Z,11.40
2019-03-22T04:42:37.444Z,12.90
2019-03-22T04:43:37.449Z,12.50
2019-03-22T04:44:37.410Z,12.90
2019-03-22T04:45:37.409Z,11.90
2019-03-22T04:46:37.413Z,12.40
2019-03-22T04:47:37.378Z,14.60
2019-03-22T04:48:37.376Z,13.40
2019-03-22T04:49:37.368Z,15.90
2019-03-22T04:50:37.341Z,14.10
2019-03-22T04:51:37.341Z,13.60
2019-03-22T04:52:37.328Z,13.30
2019-03-22T04:53:37.313Z,14.10
2019-03-22T04:54:37.328Z,16.00
2019-03-22T04:55:37.288Z,13.90
2019-03-22T04:56:37.273Z,13.70
2019-03-22T04:57:37.265Z,14.50
2019-03-22T04:58:37.287Z,12.20
2019-03-22T04:59:37.248Z,12.10
2019-03-22T05:00:37.254Z,13.20
2019-03-22T05:01:37.224Z,13.20
2019-03-22T05:02:37.209Z,12.10
2019-03-22T05:03:37.207Z,13.70
2019-03-22T05:04:37.205Z,13.10
2019-03-22T05:05:37.183Z,12.80
2019-03-22T05:06:37.199Z,12.90
2019-03-22T05:07:37.158Z,13.50
2019-03-22T05:08:37.145Z,12.40
2019-03-22T05:09:37.137Z,13.10
2019-03-22T05:10:37.128Z,14.10
2019-03-22T05:11:37.153Z,12.60
2019-03-22T05:12:37.132Z,12.80
2019-03-22T05:13:37.091Z,14.00
2019-03-22T05:14:37.075Z,13.40
2019-03-22T05:15:37.066Z,15.00
2019-03-22T05:16:37.069Z,12.80
2019-03-22T05:17:37.051Z,13.30
2019-03-22T05:18:37.055Z,13.70
2019-03-22T05:19:37.025Z,13.10
2019-03-22T05:20:37.082Z,14.10
2019-03-22T05:21:37.001Z,12.80
2019-03-22T05:22:37.000Z,14.80
2019-03-22T05:23:36.978Z,15.80
2019-03-22T05:24:37.010Z,13.50
2019-03-22T05:25:36.954Z,12.60
2019-03-22T05:26:36.948Z,12.90
2019-03-22T05:27:36.938Z,12.90
2019-03-22T05:28:36.940Z,13.30
2019-03-22T05:29:38.874Z,12.60
2019-03-22T05:30:36.918Z,14.00
2019-03-22T05:31:36.887Z,12.00
2019-03-22T05:32:36.876Z,13.20
2019-03-22T05:33:36.872Z,13.30
2019-03-22T05:34:36.857Z,14.00
2019-03-22T05:35:36.844Z,12.90
2019-03-22T05:36:36.860Z,13.20
2019-03-22T05:37:36.821Z,13.00
2019-03-22T05:38:36.810Z,14.30
2019-03-22T05:39:36.798Z,11.30
2019-03-22T05:40:36.797Z,12.40
2019-03-22T05:41:36.770Z,13.90
2019-03-22T05:42:36.795Z,12.90
2019-03-22T05:43:36.756Z,15.30
2019-03-22T05:44:36.745Z,13.50
2019-03-22T05:45:36.725Z,12.20
2019-03-22T05:46:36.730Z,12.30
2019-03-22T05:47:36.704Z,13.20
2019-03-22T05:48:36.706Z,15.90
2019-03-22T05:49:36.683Z,13.00
2019-03-22T05:50:36.677Z,14.00
2019-03-22T05:51:36.671Z,13.00
2019-03-22T05:52:36.663Z,12.80
2019-03-22T05:53:36.664Z,15.00
2019-03-22T05:54:36.626Z,14.20
2019-03-22T05:55:36.619Z,13.10
2019-03-22T05:56:36.612Z,15.20
2019-03-22T05:57:36.593Z,12.60
2019-03-22T05:58:36.592Z,14.00
2019-03-22T05:59:42.439Z,13.80
2019-03-22T06:00:37.561Z,14.80
2019-03-22T06:01:36.556Z,12.90
2019-03-22T06:02:36.544Z,13.40
2019-03-22T06:03:36.523Z,13.40
2019-03-22T06:04:36.521Z,15.20
2019-03-22T06:05:36.541Z,12.80
2019-03-22T06:06:36.488Z,13.90
2019-03-22T06:07:37.159Z,13.60
2019-03-22T06:08:36.470Z,13.40
2019-03-22T06:09:36.457Z,13.50
2019-03-22T06:10:36.445Z,14.10
2019-03-22T06:11:36.475Z,15.80
2019-03-22T06:12:36.429Z,14.50
2019-03-22T06:13:36.414Z,14.90
2019-03-22T06:14:36.395Z,16.00
2019-03-22T06:15:36.385Z,16.30
2019-03-22T06:16:36.393Z,16.80
2019-03-22T06:17:36.451Z,17.70
2019-03-22T06:18:36.365Z,12.40
2019-03-22T06:19:36.342Z,12.70
2019-03-22T06:20:36.333Z,13.80
2019-03-22T06:21:36.324Z,13.30
2019-03-22T06:22:36.308Z,13.00
2019-03-22T06:23:36.348Z,14.50
2019-03-22T06:24:36.289Z,12.50
2019-03-22T06:25:36.278Z,15.50
2019-03-22T06:26:36.264Z,14.80
2019-03-22T06:27:36.262Z,15.60
2019-03-22T06:28:36.245Z,12.10
2019-03-22T06:29:36.280Z,13.60
2019-03-22T06:30:36.215Z,15.80
2019-03-22T06:31:36.220Z,15.80
2019-03-22T06:32:36.198Z,16.20
2019-03-22T06:33:36.186Z,16.00
2019-03-22T06:34:36.208Z,15.00
2019-03-22T06:35:36.251Z,16.60
2019-03-22T06:36:36.179Z,16.30
2019-03-22T06:37:36.208Z,14.30
2019-03-22T06:38:36.217Z,15.20
2019-03-22T06:39:36.183Z,16.60
2019-03-22T06:40:36.148Z,15.40
2019-03-22T06:41:36.161Z,16.50
2019-03-22T06:42:36.090Z,15.50
2019-03-22T06:43:36.073Z,15.40
2019-03-22T06:44:36.070Z,15.40
2019-03-22T06:45:36.048Z,13.60
2019-03-22T06:46:36.051Z,14.50
2019-03-22T06:47:36.065Z,15.40
2019-03-22T06:48:36.013Z,15.20
2019-03-22T06:49:36.015Z,16.20
2019-03-22T06:50:35.996Z,14.50
2019-03-22T06:51:35.992Z,14.90
2019-03-22T06:52:35.977Z,12.20
2019-03-22T06:53:35.969Z,11.50
2019-03-22T06:54:35.957Z,11.20
2019-03-22T06:55:35.936Z,11.80
2019-03-22T06:56:35.925Z,11.20
2019-03-22T06:57:35.918Z,11.40
2019-03-22T06:58:35.925Z,10.80
2019-03-22T06:59:35.891Z,10.60
2019-03-22T07:00:35.888Z,10.40
2019-03-22T07:01:35.869Z,9.70
2019-03-22T07:02:35.851Z,10.50
2019-03-22T07:03:35.850Z,10.70
2019-03-22T07:04:35.855Z,11.40
2019-03-22T07:05:35.828Z,10.80
2019-03-22T07:06:35.819Z,10.10
2019-03-22T07:07:35.818Z,11.60
2019-03-22T07:08:35.786Z,10.10
2019-03-22T07:09:35.777Z,10.60
2019-03-22T07:10:35.812Z,10.80
2019-03-22T07:11:35.757Z,10.30
2019-03-22T07:12:35.742Z,12.50
2019-03-22T07:13:35.732Z,12.80
2019-03-22T07:14:35.719Z,12.00
2019-03-22T07:15:35.708Z,11.20
2019-03-22T07:16:35.716Z,13.60
2019-03-22T07:17:36.645Z,13.20
2019-03-22T07:18:35.672Z,15.30
2019-03-22T07:19:35.689Z,14.20
2019-03-22T07:20:35.649Z,13.50
2019-03-22T07:21:35.646Z,12.70
2019-03-22T07:22:35.653Z,12.70
2019-03-22T07:23:35.621Z,13.50
2019-03-22T07:24:35.603Z,12.90
2019-03-22T07:25:35.605Z,11.50
2019-03-22T07:26:35.583Z,12.50
2019-03-22T07:27:35.569Z,14.00
2019-03-22T07:28:35.860Z,12.30
2019-03-22T07:29:35.547Z,13.00
2019-03-22T07:30:35.534Z,12.40
2019-03-22T07:31:35.963Z,14.20
2019-03-22T07:32:35.514Z,14.50
2019-03-22T07:33:35.498Z,15.00
2019-03-22T07:34:35.534Z,13.50
2019-03-22T07:35:35.495Z,12.80
2019-03-22T07:36:35.468Z,15.30
2019-03-22T07:37:35.477Z,13.50
2019-03-22T07:38:35.440Z,14.20
2019-03-22T07:39:35.440Z,14.80
2019-03-22T07:40:35.452Z,15.30
2019-03-22T07:41:35.412Z,32.60
2019-03-22T07:42:35.403Z,30.40
2019-03-22T07:43:35.413Z,26.30
2019-03-22T07:44:35.376Z,24.90
2019-03-22T07:45:35.372Z,21.60
2019-03-22T07:46:35.381Z,23.90
2019-03-22T07:47:35.339Z,21.80
2019-03-22T07:48:35.334Z,22.10
2019-03-22T07:49:35.329Z,18.10
2019-03-22T07:50:35.311Z,22.60
2019-03-22T07:51:35.298Z,16.50
2019-03-22T07:52:35.321Z,16.00
2019-03-22T07:53:35.277Z,14.30
2019-03-22T07:54:35.262Z,17.20
2019-03-22T07:55:35.263Z,17.10
2019-03-22T07:56:35.241Z,15.40
2019-03-22T07:57:35.246Z,15.40
2019-03-22T07:58:35.227Z,15.40
2019-03-22T07:59:35.216Z,17.40
2019-03-22T08:00:35.197Z,17.70
2019-03-22T08:01:35.191Z,15.70
2019-03-22T08:02:35.173Z,16.00
2019-03-22T08:03:35.204Z,18.30
2019-03-22T08:04:35.158Z,14.00
2019-03-22T08:05:35.135Z,16.80
2019-03-22T08:06:35.129Z,16.20
2019-03-22T08:07:35.127Z,14.40
2019-03-22T08:08:35.650Z,14.70
2019-03-22T08:09:35.228Z,16.90
2019-03-22T08:10:35.095Z,15.70
2019-03-22T08:11:35.076Z,15.30
2019-03-22T08:12:35.055Z,15.90
2019-03-22T08:13:35.057Z,15.50
2019-03-22T08:14:35.047Z,17.90
2019-03-22T08:15:35.056Z,15.20
2019-03-22T08:16:35.024Z,14.10
2019-03-22T08:17:35.007Z,12.50
2019-03-22T08:18:34.984Z,11.80
2019-03-22T08:19:34.995Z,12.30
2019-03-22T08:20:34.970Z,12.30
2019-03-22T08:21:34.995Z,11.20
2019-03-22T08:22:34.943Z,11.20
2019-03-22T08:23:34.940Z,12.50
2019-03-22T08:24:34.925Z,12.00
2019-03-22T08:25:34.953Z,12.30
2019-03-22T08:26:34.921Z,14.30
2019-03-22T08:27:34.916Z,14.80
2019-03-22T08:28:34.873Z,15.00
2019-03-22T08:29:34.862Z,14.70
2019-03-22T08:30:43.010Z,16.00
2019-03-22T08:31:35.874Z,17.10
2019-03-22T08:32:34.859Z,17.90
2019-03-22T08:33:34.869Z,15.70
2019-03-22T08:34:34.806Z,12.80
2019-03-22T08:35:34.794Z,12.30
2019-03-22T08:36:34.791Z,12.10
2019-03-22T08:37:34.823Z,14.80
2019-03-22T08:38:34.766Z,14.90
2019-03-22T08:39:34.789Z,15.70
2019-03-22T08:40:34.753Z,19.10
2019-03-22T08:41:34.730Z,15.80
2019-03-22T08:42:34.757Z,16.00
2019-03-22T08:43:34.723Z,16.60
2019-03-22T08:44:34.686Z,16.70
2019-03-22T08:45:34.811Z,17.60
2019-03-22T08:46:34.684Z,17.30
2019-03-22T08:47:34.849Z,15.40
2019-03-22T08:48:34.685Z,17.40
2019-03-22T08:49:34.856Z,15.90
2019-03-22T08:50:34.641Z,19.00
2019-03-22T08:51:34.660Z,18.30
2019-03-22T08:52:34.604Z,15.80
2019-03-22T08:53:34.594Z,14.90
2019-03-22T08:54:34.581Z,16.50
2019-03-22T08:55:34.574Z,17.40
2019-03-22T08:56:36.014Z,17.80
2019-03-22T08:57:34.581Z,15.70
2019-03-22T08:58:34.604Z,17.50
2019-03-22T08:59:34.524Z,14.70
2019-03-22T09:00:39.652Z,16.10
2019-03-22T09:01:35.498Z,17.80
2019-03-22T09:02:34.517Z,14.90
2019-03-22T09:03:34.528Z,14.70
2019-03-22T09:04:34.501Z,17.10
2019-03-22T09:05:34.459Z,16.50
2019-03-22T09:06:34.445Z,15.60
2019-03-22T09:07:34.475Z,14.10
2019-03-22T09:08:34.421Z,15.50
2019-03-22T09:09:41.446Z,13.20
2019-03-22T09:10:35.410Z,14.50
2019-03-22T09:11:34.383Z,15.40
2019-03-22T09:12:34.376Z,17.10
2019-03-22T09:13:34.419Z,14.60
2019-03-22T09:14:36.231Z,14.00
2019-03-22T09:15:40.988Z,14.50
2019-03-22T09:16:35.348Z,15.30
2019-03-22T09:17:34.323Z,16.10
2019-03-22T09:18:34.304Z,15.70
2019-03-22T09:19:34.322Z,13.00
2019-03-22T09:20:34.323Z,13.10
2019-03-22T09:21:34.348Z,11.90
2019-03-22T09:22:34.342Z,15.30
2019-03-22T09:23:34.254Z,12.90
2019-03-22T09:24:39.302Z,13.70
2019-03-22T09:25:34.257Z,15.40
2019-03-22T09:26:46.881Z,14.30
2019-03-22T09:27:36.542Z,13.90
2019-03-22T09:28:34.188Z,13.80
2019-03-22T09:29:34.190Z,14.10
2019-03-22T09:30:34.184Z,12.40
2019-03-22T09:31:34.174Z,14.30
2019-03-22T09:32:34.224Z,14.40
2019-03-22T09:33:34.135Z,13.90
2019-03-22T09:34:34.329Z,13.30
2019-03-22T09:35:34.117Z,15.90
2019-03-22T09:36:34.102Z,13.70
2019-03-22T09:37:34.111Z,14.60
2019-03-22T09:38:34.188Z,15.10
2019-03-22T09:39:34.071Z,13.70
2019-03-22T09:40:34.085Z,13.40
2019-03-22T09:41:34.079Z,12.10
2019-03-22T09:42:34.069Z,11.70
2019-03-22T09:43:34.015Z,12.10
2019-03-22T09:44:43.091Z,11.40
2019-03-22T09:45:34.993Z,10.90
2019-03-22T09:46:33.987Z,11.10
2019-03-22T09:47:34.037Z,10.70
2019-03-22T09:48:33.965Z,10.90
2019-03-22T09:49:34.035Z,10.50
2019-03-22T09:50:33.993Z,10.00
2019-03-22T09:51:33.938Z,10.20
2019-03-22T09:52:33.960Z,9.10
2019-03-22T09:53:33.910Z,8.80
2019-03-22T09:54:33.886Z,9.40
2019-03-22T09:55:33.877Z,8.60
2019-03-22T09:56:46.033Z,8.50
2019-03-22T09:57:34.857Z,7.90
2019-03-22T09:58:33.841Z,8.40
2019-03-22T09:59:33.860Z,8.10
2019-03-22T10:00:33.849Z,8.00
2019-03-22T10:01:33.822Z,8.30
2019-03-22T10:02:34.743Z,9.00
2019-03-22T10:03:33.794Z,8.90
2019-03-22T10:04:33.781Z,8.90
2019-03-22T10:05:33.800Z,9.70
2019-03-22T10:06:33.765Z,10.90
2019-03-22T10:07:34.692Z,8.90
2019-03-22T10:08:33.758Z,8.80
2019-03-22T10:09:33.738Z,9.00
2019-03-22T10:10:33.770Z,7.90
2019-03-22T10:11:33.699Z,7.90
2019-03-22T10:12:33.692Z,8.30
2019-03-22T10:13:33.787Z,8.60
2019-03-22T10:14:33.687Z,9.00
2019-03-22T10:15:33.705Z,9.30
2019-03-22T10:16:33.652Z,10.50
2019-03-22T10:17:33.630Z,7.80
2019-03-22T10:18:36.655Z,7.50
2019-03-22T10:19:33.655Z,8.40
2019-03-22T10:20:33.599Z,7.80
2019-03-22T10:21:33.591Z,7.80
2019-03-22T10:22:33.593Z,10.10
2019-03-22T10:23:33.568Z,7.50
2019-03-22T10:24:33.586Z,10.20
2019-03-22T10:25:33.658Z,7.40
2019-03-22T10:26:33.554Z,8.50
2019-03-22T10:27:33.514Z,8.40
2019-03-22T10:28:33.519Z,7.90
2019-03-22T10:29:33.497Z,8.60
2019-03-22T10:30:33.492Z,9.30
2019-03-22T10:31:37.328Z,9.50
2019-03-22T10:32:33.473Z,9.60
2019-03-22T10:33:33.448Z,9.80
2019-03-22T10:34:33.471Z,6.60
2019-03-22T10:35:33.433Z,8.10
2019-03-22T10:36:33.416Z,9.10
2019-03-22T10:37:33.445Z,7.10
2019-03-22T10:38:33.432Z,8.20
2019-03-22T10:39:33.406Z,9.10
2019-03-22T10:40:33.414Z,10.30
2019-03-22T10:41:33.383Z,8.80
2019-03-22T10:42:33.374Z,10.20
2019-03-22T10:43:33.412Z,9.30
2019-03-22T10:44:33.373Z,7.10
2019-03-22T10:45:33.314Z,8.60
2019-03-22T10:46:33.310Z,9.30
2019-03-22T10:47:33.315Z,10.30
2019-03-22T10:48:33.273Z,7.80
2019-03-22T10:49:33.314Z,9.10
2019-03-22T10:50:33.255Z,8.70
2019-03-22T10:51:33.238Z,12.90
2019-03-22T10:52:33.244Z,8.30
2019-03-22T10:53:33.260Z,9.20
2019-03-22T10:54:33.305Z,11.40
2019-03-22T10:55:35.563Z,13.50
2019-03-22T10:56:33.183Z,15.00
2019-03-22T10:57:33.167Z,8.90
2019-03-22T10:58:33.175Z,13.40
2019-03-22T10:59:33.150Z,13.30
2019-03-22T11:00:33.183Z,12.90
2019-03-22T11:01:46.449Z,13.50
2019-03-22T11:02:34.115Z,12.60
2019-03-22T11:03:33.127Z,13.70
2019-03-22T11:04:33.122Z,11.50
2019-03-22T11:05:33.087Z,8.30
2019-03-22T11:06:33.096Z,9.10
2019-03-22T11:07:33.053Z,10.50
2019-03-22T11:08:33.049Z,8.30
2019-03-22T11:09:33.041Z,8.80
2019-03-22T11:10:33.039Z,12.50
2019-03-22T11:11:33.018Z,9.90
2019-03-22T11:12:33.038Z,9.10
2019-03-22T11:13:32.993Z,10.10
2019-03-22T11:14:32.977Z,9.90
2019-03-22T11:15:32.970Z,10.00
2019-03-22T11:16:32.964Z,11.20
2019-03-22T11:17:32.979Z,12.70
2019-03-22T11:18:37.312Z,12.10
2019-03-22T11:19:32.937Z,12.20
2019-03-22T11:20:32.922Z,12.10
2019-03-22T11:21:32.908Z,12.40
2019-03-22T11:22:32.886Z,11.90
2019-03-22T11:23:32.878Z,12.90
2019-03-22T11:24:32.894Z,13.50
2019-03-22T11:25:32.901Z,12.80
2019-03-22T11:26:32.855Z,13.10
2019-03-22T11:27:32.834Z,13.40
2019-03-22T11:28:32.823Z,13.40
2019-03-22T11:29:32.806Z,11.90
2019-03-22T11:30:32.830Z,11.70
2019-03-22T11:31:39.803Z,9.50
2019-03-22T11:32:33.783Z,9.30
2019-03-22T11:33:32.763Z,9.30
2019-03-22T11:34:32.755Z,12.20
2019-03-22T11:35:32.735Z,13.50
2019-03-22T11:36:33.243Z,13.80
2019-03-22T11:37:32.745Z,14.80
2019-03-22T11:38:32.705Z,12.70
2019-03-22T11:39:32.694Z,13.30
2019-03-22T11:40:32.679Z,13.10
2019-03-22T11:41:32.703Z,11.70
2019-03-22T11:42:32.682Z,13.90
2019-03-22T11:43:32.664Z,15.80
2019-03-22T11:44:32.639Z,14.90
2019-03-22T11:45:32.631Z,13.10
2019-03-22T11:46:32.611Z,15.00
2019-03-22T11:47:32.606Z,14.20
2019-03-22T11:48:32.630Z,14.80
2019-03-22T11:49:32.602Z,14.80
2019-03-22T11:50:32.572Z,15.80
2019-03-22T11:51:32.556Z,16.20
2019-03-22T11:52:32.548Z,16.70
2019-03-22T11:53:32.534Z,14.30
2019-03-22T11:54:32.534Z,15.30
2019-03-22T11:55:32.542Z,13.70
2019-03-22T11:56:32.495Z,15.80
2019-03-22T11:57:32.488Z,14.20
2019-03-22T11:58:32.488Z,15.30
2019-03-22T11:59:32.503Z,14.60
2019-03-22T12:00:32.460Z,14.90
2019-03-22T12:01:32.465Z,12.90
2019-03-22T12:02:32.432Z,12.80
2019-03-22T12:03:32.419Z,15.10
2019-03-22T12:04:32.408Z,10.90
2019-03-22T12:05:40.076Z,9.40
2019-03-22T12:06:33.387Z,8.00
2019-03-22T12:07:32.398Z,11.40
2019-03-22T12:08:32.366Z,11.70
2019-03-22T12:09:32.350Z,11.90
2019-03-22T12:10:32.340Z,12.50
2019-03-22T12:11:32.370Z,12.60
2019-03-22T12:12:32.320Z,9.40
2019-03-22T12:13:32.337Z,8.40
2019-03-22T12:14:32.300Z,6.40
2019-03-22T12:15:32.286Z,5.60
2019-03-22T12:16:32.277Z,4.50
2019-03-22T12:17:32.286Z,4.70
2019-03-22T12:18:32.248Z,3.40
2019-03-22T12:19:33.241Z,3.20
2019-03-22T12:20:32.226Z,5.20
2019-03-22T12:21:32.213Z,4.70
2019-03-22T12:22:32.205Z,3.80
2019-03-22T12:23:32.208Z,5.30
2019-03-22T12:24:32.210Z,3.40
2019-03-22T12:25:32.170Z,2.80
2019-03-22T12:26:32.154Z,3.70
2019-03-22T12:27:36.549Z,3.50
2019-03-22T12:28:32.133Z,3.30
2019-03-22T12:29:34.290Z,4.60
2019-03-22T12:30:32.117Z,4.00
2019-03-22T12:31:32.122Z,3.20
2019-03-22T12:32:32.487Z,2.70
2019-03-22T12:33:32.094Z,2.70
2019-03-22T12:34:32.067Z,4.30
2019-03-22T12:35:32.082Z,3.10
2019-03-22T12:36:32.048Z,2.80
2019-03-22T12:37:32.062Z,3.10
2019-03-22T12:38:32.024Z,4.50
2019-03-22T12:39:32.008Z,3.60
2019-03-22T12:40:31.996Z,2.80
2019-03-22T12:41:32.014Z,2.70
2019-03-22T12:42:31.979Z,2.80
2019-03-22T12:43:33.446Z,4.70
2019-03-22T12:44:31.946Z,3.10
2019-03-22T12:45:31.941Z,3.30
2019-03-22T12:46:31.930Z,3.30
2019-03-22T12:47:31.954Z,3.60
2019-03-22T12:48:31.907Z,4.10
2019-03-22T12:49:32.043Z,4.20
2019-03-22T12:50:31.891Z,3.90
2019-03-22T12:51:31.874Z,5.20
2019-03-22T12:52:31.866Z,3.30
2019-03-22T12:53:31.887Z,3.00
2019-03-22T12:54:31.840Z,3.70
2019-03-22T12:55:31.847Z,3.30
2019-03-22T12:56:31.815Z,3.60